Fábio Assis

Olheiro - Bragantino
17 Set 2028
Domingo
Processo

Personalidade

Adaptabilidade (17) Ambição (8) Controvérsia (14) Lealdade (16) Pressão (8) Profissionalismo (8) Espírito Esportivo (6) Temperamento (9)

Perfil

Estilo de Treinamento Democrático
Licença Nacional A
Determinação 10
Gestão de Pessoas 13
Motivação 10
Disciplina 13
Satisfação no Trabalho
100%
Fadiga
0%
Função Olheiro
Salário 46.5K p/s
Contrato 14.03.2030

Desempenho

Comportamento Bom
Eficácia do Treinamento
65%
Desenvolvimento do Jogador
30%
Prevenção de Lesões
60%
Implementação Tática
65%

Eventos Recentes

Participou de uma reunião de recrutamento 7d atrás
Participou de uma reunião de recrutamento 14d atrás
Participou de uma reunião de recrutamento 21d atrás
Participou de uma reunião de recrutamento 28d atrás
Participou de uma reunião de recrutamento 35d atrás
Participou de uma reunião de recrutamento 42d atrás
Participou de uma reunião de recrutamento 49d atrás
Participou de uma reunião de recrutamento 56d atrás

Monitorando agora

59
Jogador Clube Status Habilidade Confiança Observado Última observação Último voto
João Victor Flamengo Perdido 110 / 117 69% 1 19.06.2028 Aprovar
Mateus Carvalho Vasco da Gama Perdido 108 / 116 69% 1 12.06.2028 Aprovar
Ryan Corinthians Perdido 110 / 113 69% 1 06.06.2028 Aprovar
Rafael Moreno Atletico Venezuela Ativo 113 / 119 40% 1 31.05.2027 -
Luke Baartman Ajax Cape Town Ativo 102 / 102 40% 1 31.05.2027 -
Reda Khadra Qarabag Ativo 131 / 130 40% 1 29.11.2026 -
Leo Castledine Middlesbrough Ativo 122 / 133 40% 3 28.11.2026 -
Nuno Moreira Vasco da Gama Ativo 137 / 127 40% 1 28.11.2026 -
Samuel Lino Flamengo Ativo 141 / 148 40% 3 27.11.2026 -
Víctor Gómez Braga Ativo 125 / 141 40% 3 25.11.2026 -
William Gomes Porto Ativo 133 / 158 40% 3 25.11.2026 -
Enzo Barrenechea Benfica Ativo 154 / 157 40% 2 24.11.2026 -
Jordan Holsgrove Estoril Praia Ativo 134 / 137 40% 1 24.11.2026 -
Zeno Debast Sporting CP Ativo 148 / 152 40% 1 23.11.2026 Mais informações
Víctor Guzmán Monterrey Ativo 136 / 137 40% 1 23.11.2026 -
Ousseynou Seck Randers Ativo 119 / 128 40% 1 21.11.2026 -
Gabriel Pec Cruzeiro Ativo 141 / 124 40% 1 21.11.2026 -
Rocco Vata Watford Ativo 134 / 130 40% 3 18.11.2026 -
Leandro Barreiro Benfica Ativo 145 / 151 40% 2 16.11.2026 -
Alan Varela Porto Ativo 149 / 141 40% 2 13.11.2026 -
Carlos Forbs Club Brugge Ativo 139 / 136 40% 2 13.11.2026 -
Agustín Ruberto River Plate Ativo 125 / 123 40% 1 12.11.2026 -
Will Lankshear Middlesbrough Ativo 135 / 113 40% 3 11.11.2026 -
Juan Ignacio Nardoni Grêmio Ativo 131 / 139 40% 1 11.11.2026 -
Dinis Pinto Moreirense Ativo 124 / 124 40% 1 11.11.2026 -
Sergi Altimira Sporting CP Ativo 153 / 128 40% 1 09.11.2026 -
Youssoufa Moukoko FC Copenhagen Ativo 117 / 117 40% 1 08.11.2026 -
Florentino Luís Ipswich Town Ativo 135 / 147 40% 1 04.11.2026 -
Matheus Bidu Corinthians Ativo 118 / 126 40% 1 04.11.2026 -
Luis Sinisterra Cruzeiro Ativo 132 / 147 40% 2 02.11.2026 -
Carlos Álvarez Club America Ativo 137 / 138 40% 2 30.10.2026 -
Caio Alexandre Bahia Ativo 140 / 128 40% 1 30.10.2026 -
Paulo Moreira Nacional Ativo 135 / 126 40% 1 26.10.2026 -
Taichi Fukui Arouca Ativo 110 / 113 40% 1 26.10.2026 -
Danilo Botafogo Ativo 133 / 145 40% 1 24.10.2026 -
André Wolverhampton Ativo 129 / 142 40% 1 24.10.2026 -
Iván Fresneda Sporting CP Ativo 127 / 130 40% 2 22.10.2026 -
Ilyas Ansah Hull City Ativo 130 / 120 40% 4 22.10.2026 -
Mateus Mané Burnley Ativo 118 / 150 40% 2 22.10.2026 -
Alberto Costa Porto Ativo 133 / 137 40% 2 22.10.2026 -
Matías Contrera Hrvatski Dragovoljac Ativo 101 / 100 40% 2 17.10.2026 -
Yanis Begraoui Estoril Praia Ativo 129 / 132 40% 1 15.10.2026 -
Samuel Dahl Benfica Ativo 129 / 134 40% 2 13.10.2026 -
Sindre Walle Egeli Udinese Ativo 117 / 122 40% 1 13.10.2026 -
Alexandro Bernabei Internacional Ativo 128 / 141 40% 1 13.10.2026 -
Bright Arrey-Mbi Braga Ativo 141 / 125 40% 1 10.10.2026 -
Figueiredo Alverca Ativo 135 / 121 40% 1 09.10.2026 -
Alan Lescano Argentinos Juniors Ativo 134 / 139 40% 1 05.10.2026 -
Roberto Fernández Braga Ativo 134 / 135 40% 1 01.10.2026 -
Víctor Guzmán Sporting CP Ativo 86 / 86 40% 1 26.09.2026 -
Jean-Baptiste Gorby Braga Ativo 136 / 134 40% 1 20.09.2026 -
Brian Gutiérrez Guadalajara Ativo 133 / 138 40% 1 14.09.2026 -
Tetê Grêmio Ativo 128 / 134 40% 1 12.09.2026 -
Santi García Gil Vicente Ativo 129 / 119 40% 1 10.09.2026 -
Heorhii Sudakov Benfica Ativo 151 / 138 40% 1 10.09.2026 -
José Sampaio Vizela Ativo 107 / 124 40% 1 22.08.2026 -
Zaïd BafdilI Sporting CP Ativo 100 / 90 40% 1 19.08.2026 -
Jonás Luna Wanderers Ativo 117 / 124 40% 1 03.08.2026 -
Eddy Doué Estrela da Amadora Ativo 87 / 103 40% 1 02.08.2026 -